Syndicate, Indiana
Current Conditions -  °F | °C
As of 1:15 PM on Friday 19 Dec 2014 (Local Time) from KPRG Reporting Station
Scattered Clouds Scattered Clouds  
Wind Chill: 33°   Ceiling: Unl
Heat Index: 33°   Visibility: 10mi
Dew Point: 25°   Wind: 0mph
Humidity: 73%   Direction: NA
Pressure: 30.3"   Gusts: NA
Location:  39.6513°N, 87.4607°W
Report Text: KPRG 191815Z AUTO 00000KT 10SM SCT029 00/M04 A3030 RMK AO2 T00031040
Loading
Personal Weather Stations






























Interactive Weather Map New forecast layout! Learn more

10-Day Weather Forecast

Advertisements
Track Severe Weather on mobile